createdAt,value
2018-04-21T00:00:56.269Z,1015.53
2018-04-21T00:01:56.258Z,1015.54
2018-04-21T00:02:56.240Z,1015.53
2018-04-21T00:03:56.237Z,1015.55
2018-04-21T00:04:56.275Z,1015.58
2018-04-21T00:05:56.206Z,1015.54
2018-04-21T00:06:56.192Z,1015.60
2018-04-21T00:07:56.183Z,1015.61
2018-04-21T00:08:56.176Z,1015.52
2018-04-21T00:09:56.157Z,1015.56
2018-04-21T00:10:56.150Z,1015.60
2018-04-21T00:11:56.141Z,1015.55
2018-04-21T00:12:56.122Z,1015.65
2018-04-21T00:13:56.117Z,1015.58
2018-04-21T00:14:56.096Z,1015.55
2018-04-21T00:15:56.088Z,1015.57
2018-04-21T00:16:56.084Z,1015.57
2018-04-21T00:17:56.236Z,1015.56
2018-04-21T00:18:56.052Z,1015.60
2018-04-21T00:19:56.036Z,1015.58
2018-04-21T00:20:56.029Z,1015.56
2018-04-21T00:21:56.016Z,1015.53
2018-04-21T00:22:56.001Z,1015.55
2018-04-21T00:23:55.987Z,1015.57
2018-04-21T00:24:55.978Z,1015.52
2018-04-21T00:25:55.965Z,1015.56
2018-04-21T00:26:55.950Z,1015.57
2018-04-21T00:27:55.940Z,1015.56
2018-04-21T00:28:55.929Z,1015.55
2018-04-21T00:29:55.915Z,1015.51
2018-04-21T00:30:55.916Z,1015.51
2018-04-21T00:31:55.902Z,1015.49
2018-04-21T00:32:55.879Z,1015.52
2018-04-21T00:33:56.037Z,1015.48
2018-04-21T00:34:55.856Z,1015.50
2018-04-21T00:35:55.853Z,1015.51
2018-04-21T00:36:55.887Z,1015.51
2018-04-21T00:37:55.818Z,1015.46
2018-04-21T00:38:55.808Z,1015.53
2018-04-21T00:39:55.794Z,1015.52
2018-04-21T00:40:55.782Z,1015.49
2018-04-21T00:41:55.902Z,1015.45
2018-04-21T00:42:55.766Z,1015.46
2018-04-21T00:43:55.745Z,1015.42
2018-04-21T00:44:55.735Z,1015.47
2018-04-21T00:45:55.724Z,1015.46
2018-04-21T00:46:55.712Z,1015.39
2018-04-21T00:47:55.704Z,1015.39
2018-04-21T00:48:55.683Z,1015.41
2018-04-21T00:49:55.681Z,1015.44
2018-04-21T00:50:55.676Z,1015.45
2018-04-21T00:51:55.649Z,1015.47
2018-04-21T00:52:55.643Z,1015.45
2018-04-21T00:53:55.623Z,1015.44
2018-04-21T00:54:55.610Z,1015.45
2018-04-21T00:55:55.597Z,1015.45
2018-04-21T00:56:55.585Z,1015.45
2018-04-21T00:57:55.571Z,1015.45
2018-04-21T00:58:55.568Z,1015.47
2018-04-21T00:59:55.552Z,1015.49
2018-04-21T01:00:55.537Z,1015.49
2018-04-21T01:01:55.521Z,1015.45
2018-04-21T01:02:55.512Z,1015.48
2018-04-21T01:03:55.496Z,1015.48
2018-04-21T01:04:55.486Z,1015.48
2018-04-21T01:05:55.471Z,1015.47
2018-04-21T01:06:55.461Z,1015.49
2018-04-21T01:07:55.447Z,1015.50
2018-04-21T01:08:55.436Z,1015.49
2018-04-21T01:09:55.427Z,1015.49
2018-04-21T01:10:55.412Z,1015.48
2018-04-21T01:11:55.407Z,1015.49
2018-04-21T01:12:55.389Z,1015.52
2018-04-21T01:13:55.375Z,1015.53
2018-04-21T01:14:55.360Z,1015.54
2018-04-21T01:15:55.351Z,1015.54
2018-04-21T01:16:55.334Z,1015.50
2018-04-21T01:17:55.334Z,1015.46
2018-04-21T01:18:55.311Z,1015.49
2018-04-21T01:19:55.299Z,1015.50
2018-04-21T01:20:55.295Z,1015.49
2018-04-21T01:21:55.271Z,1015.46
2018-04-21T01:22:55.259Z,1015.49
2018-04-21T01:23:55.248Z,1015.48
2018-04-21T01:24:55.233Z,1015.50
2018-04-21T01:25:55.224Z,1015.49
2018-04-21T01:26:55.208Z,1015.48
2018-04-21T01:27:55.196Z,1015.46
2018-04-21T01:28:55.182Z,1015.51
2018-04-21T01:29:55.170Z,1015.52
2018-04-21T01:30:55.158Z,1015.53
2018-04-21T01:31:55.148Z,1015.48
2018-04-21T01:32:55.132Z,1015.55
2018-04-21T01:33:55.134Z,1015.53
2018-04-21T01:34:55.118Z,1015.57
2018-04-21T01:35:55.098Z,1015.53
2018-04-21T01:36:55.088Z,1015.52
2018-04-21T01:37:55.067Z,1015.50
2018-04-21T01:38:55.057Z,1015.48
2018-04-21T01:39:55.049Z,1015.51
2018-04-21T01:40:55.036Z,1015.50
2018-04-21T01:41:55.019Z,1015.50
2018-04-21T01:42:55.006Z,1015.51
2018-04-21T01:43:55.014Z,1015.51
2018-04-21T01:44:54.979Z,1015.52
2018-04-21T01:45:54.966Z,1015.49
2018-04-21T01:46:54.956Z,1015.49
2018-04-21T01:47:54.940Z,1015.48
2018-04-21T01:48:54.927Z,1015.47
2018-04-21T01:49:54.916Z,1015.46
2018-04-21T01:50:54.923Z,1015.46
2018-04-21T01:51:54.887Z,1015.45
2018-04-21T01:52:54.884Z,1015.45
2018-04-21T01:53:54.881Z,1015.44
2018-04-21T01:54:54.850Z,1015.44
2018-04-21T01:55:54.837Z,1015.43
2018-04-21T01:56:54.875Z,1015.44
2018-04-21T01:57:54.810Z,1015.42
2018-04-21T01:58:54.795Z,1015.41
2018-04-21T01:59:54.784Z,1015.43
2018-04-21T02:00:54.784Z,1015.44
2018-04-21T02:01:54.759Z,1015.43
2018-04-21T02:02:54.746Z,1015.40
2018-04-21T02:03:54.737Z,1015.42
2018-04-21T02:04:54.718Z,1015.44
2018-04-21T02:05:54.706Z,1015.46
2018-04-21T02:06:54.698Z,1015.42
2018-04-21T02:07:54.685Z,1015.43
2018-04-21T02:08:54.669Z,1015.44
2018-04-21T02:09:54.755Z,1015.47
2018-04-21T02:10:54.643Z,1015.46
2018-04-21T02:11:54.628Z,1015.45
2018-04-21T02:12:54.619Z,1015.44
2018-04-21T02:13:54.604Z,1015.44
2018-04-21T02:14:54.596Z,1015.47
2018-04-21T02:15:54.575Z,1015.45
2018-04-21T02:16:54.563Z,1015.48
2018-04-21T02:17:54.563Z,1015.46
2018-04-21T02:18:54.543Z,1015.46
2018-04-21T02:19:54.522Z,1015.41
2018-04-21T02:20:54.512Z,1015.49
2018-04-21T02:21:54.501Z,1015.46
2018-04-21T02:22:54.485Z,1015.43
2018-04-21T02:23:54.468Z,1015.50
2018-04-21T02:24:54.457Z,1015.46
2018-04-21T02:25:54.535Z,1015.47
2018-04-21T02:26:54.431Z,1015.47
2018-04-21T02:27:54.416Z,1015.44
2018-04-21T02:28:54.401Z,1015.45
2018-04-21T02:29:54.388Z,1015.43
2018-04-21T02:30:54.376Z,1015.41
2018-04-21T02:31:54.365Z,1015.41
2018-04-21T02:32:54.351Z,1015.40
2018-04-21T02:33:54.332Z,1015.43
2018-04-21T02:34:54.321Z,1015.45
2018-04-21T02:35:54.310Z,1015.39
2018-04-21T02:36:54.305Z,1015.43
2018-04-21T02:37:54.280Z,1015.38
2018-04-21T02:38:54.271Z,1015.36
2018-04-21T02:39:54.255Z,1015.36
2018-04-21T02:40:54.239Z,1015.36
2018-04-21T02:41:54.230Z,1015.36
2018-04-21T02:42:54.215Z,1015.33
2018-04-21T02:43:54.211Z,1015.35
2018-04-21T02:44:54.202Z,1015.34
2018-04-21T02:45:54.175Z,1015.35
2018-04-21T02:46:54.179Z,1015.35
2018-04-21T02:47:54.149Z,1015.37
2018-04-21T02:48:54.143Z,1015.36
2018-04-21T02:49:54.169Z,1015.35
2018-04-21T02:50:54.109Z,1015.36
2018-04-21T02:51:54.101Z,1015.32
2018-04-21T02:52:54.080Z,1015.32
2018-04-21T02:53:54.071Z,1015.34
2018-04-21T02:54:54.048Z,1015.31
2018-04-21T02:55:54.044Z,1015.31
2018-04-21T02:56:54.026Z,1015.30
2018-04-21T02:57:54.008Z,1015.32
2018-04-21T02:58:53.997Z,1015.31
2018-04-21T02:59:53.984Z,1015.31
2018-04-21T03:00:53.973Z,1015.31
2018-04-21T03:01:53.962Z,1015.30
2018-04-21T03:02:53.978Z,1015.27
2018-04-21T03:03:53.927Z,1015.33
2018-04-21T03:04:53.920Z,1015.34
2018-04-21T03:05:53.925Z,1015.33
2018-04-21T03:06:53.894Z,1015.31
2018-04-21T03:07:53.873Z,1015.31
2018-04-21T03:08:53.870Z,1015.31
2018-04-21T03:09:53.847Z,1015.32
2018-04-21T03:10:53.835Z,1015.33
2018-04-21T03:11:53.820Z,1015.30
2018-04-21T03:12:53.806Z,1015.29
2018-04-21T03:13:53.790Z,1015.32
2018-04-21T03:14:53.776Z,1015.34
2018-04-21T03:15:53.764Z,1015.33
2018-04-21T03:16:53.755Z,1015.36
2018-04-21T03:17:53.744Z,1015.32
2018-04-21T03:18:53.882Z,1015.36
2018-04-21T03:19:53.713Z,1015.31
2018-04-21T03:20:53.700Z,1015.36
2018-04-21T03:21:53.683Z,1015.35
2018-04-21T03:22:53.668Z,1015.30
2018-04-21T03:23:53.653Z,1015.31
2018-04-21T03:24:53.638Z,1015.28
2018-04-21T03:25:53.660Z,1015.30
2018-04-21T03:26:53.623Z,1015.32
2018-04-21T03:27:53.597Z,1015.29
2018-04-21T03:28:53.585Z,1015.32
2018-04-21T03:29:53.571Z,1015.29
2018-04-21T03:30:53.557Z,1015.35
2018-04-21T03:31:53.556Z,1015.35
2018-04-21T03:32:53.529Z,1015.32
2018-04-21T03:33:53.514Z,1015.37
2018-04-21T03:34:53.501Z,1015.37
2018-04-21T03:35:53.497Z,1015.34
2018-04-21T03:36:53.473Z,1015.35
2018-04-21T03:37:53.458Z,1015.33
2018-04-21T03:38:53.453Z,1015.37
2018-04-21T03:39:53.452Z,1015.31
2018-04-21T03:40:53.419Z,1015.33
2018-04-21T03:41:53.402Z,1015.28
2018-04-21T03:42:53.388Z,1015.32
2018-04-21T03:43:53.381Z,1015.27
2018-04-21T03:44:53.362Z,1015.26
2018-04-21T03:45:53.350Z,1015.24
2018-04-21T03:46:53.332Z,1015.27
2018-04-21T03:47:53.319Z,1015.24
2018-04-21T03:48:53.310Z,1015.25
2018-04-21T03:49:53.293Z,1015.25
2018-04-21T03:50:53.283Z,1015.27
2018-04-21T03:51:53.265Z,1015.28
2018-04-21T03:52:53.251Z,1015.27
2018-04-21T03:53:53.239Z,1015.29
2018-04-21T03:54:53.301Z,1015.29
2018-04-21T03:55:53.211Z,1015.31
2018-04-21T03:56:53.194Z,1015.34
2018-04-21T03:57:53.234Z,1015.31
2018-04-21T03:58:53.168Z,1015.30
2018-04-21T03:59:53.149Z,1015.30
2018-04-21T04:00:53.139Z,1015.34
2018-04-21T04:01:53.122Z,1015.32
2018-04-21T04:02:53.114Z,1015.38
2018-04-21T04:03:53.098Z,1015.32
2018-04-21T04:04:53.079Z,1015.35
2018-04-21T04:05:53.074Z,1015.37
2018-04-21T04:06:53.061Z,1015.40
2018-04-21T04:07:53.157Z,1015.39
2018-04-21T04:08:53.027Z,1015.38
2018-04-21T04:09:53.017Z,1015.41
2018-04-21T04:10:52.996Z,1015.49
2018-04-21T04:11:52.982Z,1015.47
2018-04-21T04:12:52.969Z,1015.53
2018-04-21T04:13:52.952Z,1015.64
2018-04-21T04:14:52.939Z,1015.60
2018-04-21T04:15:52.925Z,1015.58
2018-04-21T04:16:52.911Z,1015.59
2018-04-21T04:17:52.897Z,1015.61
2018-04-21T04:18:52.893Z,1015.62
2018-04-21T04:19:52.869Z,1015.61
2018-04-21T04:20:52.864Z,1015.61
2018-04-21T04:21:52.891Z,1015.64
2018-04-21T04:22:52.826Z,1015.61
2018-04-21T04:23:52.820Z,1015.62
2018-04-21T04:24:52.795Z,1015.63
2018-04-21T04:25:52.903Z,1015.68
2018-04-21T04:26:52.768Z,1015.67
2018-04-21T04:27:52.755Z,1015.67
2018-04-21T04:28:52.802Z,1015.70
2018-04-21T04:29:52.725Z,1015.73
2018-04-21T04:30:52.713Z,1015.71
2018-04-21T04:31:52.695Z,1015.73
2018-04-21T04:32:52.680Z,1015.76
2018-04-21T04:33:52.672Z,1015.76
2018-04-21T04:34:52.654Z,1015.76
2018-04-21T04:35:52.636Z,1015.76
2018-04-21T04:36:52.625Z,1015.77
2018-04-21T04:37:52.609Z,1015.80
2018-04-21T04:38:52.593Z,1015.78
2018-04-21T04:39:52.594Z,1015.79
2018-04-21T04:40:52.565Z,1015.82
2018-04-21T04:41:52.671Z,1015.84
2018-04-21T04:42:52.536Z,1015.85
2018-04-21T04:43:52.523Z,1015.85
2018-04-21T04:44:52.529Z,1015.88
2018-04-21T04:45:52.494Z,1015.89
2018-04-21T04:46:52.480Z,1015.86
2018-04-21T04:47:52.463Z,1015.84
2018-04-21T04:48:52.447Z,1015.83
2018-04-21T04:49:52.433Z,1015.86
2018-04-21T04:50:52.427Z,1015.89
2018-04-21T04:51:52.404Z,1015.85
2018-04-21T04:52:52.392Z,1015.87
2018-04-21T04:53:52.376Z,1015.93
2018-04-21T04:54:52.380Z,1015.91
2018-04-21T04:55:52.348Z,1015.95
2018-04-21T04:56:52.342Z,1015.94
2018-04-21T04:57:52.317Z,1015.96
2018-04-21T04:58:52.307Z,1015.98
2018-04-21T04:59:52.293Z,1016.00
2018-04-21T05:00:52.413Z,1015.98
2018-04-21T05:01:52.262Z,1016.03
2018-04-21T05:02:52.244Z,1016.03
2018-04-21T05:03:52.237Z,1016.02
2018-04-21T05:04:52.221Z,1016.02
2018-04-21T05:05:52.202Z,1016.01
2018-04-21T05:06:52.187Z,1016.04
2018-04-21T05:07:52.231Z,1016.01
2018-04-21T05:08:52.161Z,1015.98
2018-04-21T05:09:52.144Z,1016.01
2018-04-21T05:10:52.131Z,1016.05
2018-04-21T05:11:52.116Z,1016.07
2018-04-21T05:12:52.099Z,1016.05
2018-04-21T05:13:52.101Z,1016.02
2018-04-21T05:14:52.071Z,1016.07
2018-04-21T05:15:52.059Z,1016.07
2018-04-21T05:16:52.043Z,1016.12
2018-04-21T05:17:52.032Z,1016.10
2018-04-21T05:18:52.017Z,1016.11
2018-04-21T05:19:52.000Z,1016.16
2018-04-21T05:20:51.994Z,1016.16
2018-04-21T05:21:52.025Z,1016.12
2018-04-21T05:22:51.982Z,1016.19
2018-04-21T05:23:51.941Z,1016.20
2018-04-21T05:24:51.943Z,1016.21
2018-04-21T05:25:51.911Z,1016.20
2018-04-21T05:26:51.899Z,1016.20
2018-04-21T05:27:51.888Z,1016.24
2018-04-21T05:28:51.878Z,1016.23
2018-04-21T05:29:51.854Z,1016.24
2018-04-21T05:30:51.898Z,1016.27
2018-04-21T05:31:51.829Z,1016.27
2018-04-21T05:32:51.820Z,1016.30
2018-04-21T05:33:51.833Z,1016.37
2018-04-21T05:34:51.784Z,1016.38
2018-04-21T05:35:51.807Z,1016.42
2018-04-21T05:36:51.758Z,1016.44
2018-04-21T05:37:51.741Z,1016.46
2018-04-21T05:38:51.732Z,1016.51
2018-04-21T05:39:51.719Z,1016.49
2018-04-21T05:40:51.700Z,1016.56
2018-04-21T05:41:51.688Z,1016.56
2018-04-21T05:42:51.687Z,1016.57
2018-04-21T05:43:51.657Z,1016.65
2018-04-21T05:44:51.663Z,1016.65
2018-04-21T05:45:51.637Z,1016.65
2018-04-21T05:46:51.635Z,1016.60
2018-04-21T05:47:51.606Z,1016.69
2018-04-21T05:48:51.592Z,1016.66
2018-04-21T05:49:51.588Z,1016.68
2018-04-21T05:50:51.568Z,1016.71
2018-04-21T05:51:51.557Z,1016.73
2018-04-21T05:52:51.546Z,1016.73
2018-04-21T05:53:51.538Z,1016.77
2018-04-21T05:54:51.519Z,1016.81
2018-04-21T05:55:51.508Z,1016.78
2018-04-21T05:56:51.504Z,1016.79
2018-04-21T05:57:51.480Z,1016.82
2018-04-21T05:58:51.475Z,1016.81
2018-04-21T05:59:51.458Z,1016.84
2018-04-21T06:00:51.456Z,1016.85
2018-04-21T06:01:51.445Z,1016.88
2018-04-21T06:02:51.427Z,1016.87
2018-04-21T06:03:51.500Z,1016.92
2018-04-21T06:04:51.411Z,1016.86
2018-04-21T06:05:51.390Z,1016.90
2018-04-21T06:06:51.381Z,1016.95
2018-04-21T06:07:51.384Z,1016.94
2018-04-21T06:08:51.358Z,1016.94
2018-04-21T06:09:51.348Z,1016.92
2018-04-21T06:10:51.338Z,1016.88
2018-04-21T06:11:51.326Z,1016.90
2018-04-21T06:12:51.323Z,1016.89
2018-04-21T06:13:51.331Z,1016.90
2018-04-21T06:14:51.296Z,1016.90
2018-04-21T06:15:51.313Z,1017.01
2018-04-21T06:16:51.275Z,1016.92
2018-04-21T06:17:51.271Z,1017.02
2018-04-21T06:18:51.252Z,1017.02
2018-04-21T06:19:51.243Z,1016.97
2018-04-21T06:20:51.257Z,1017.00
2018-04-21T06:21:51.223Z,1017.04
2018-04-21T06:22:51.217Z,1017.04
2018-04-21T06:23:51.208Z,1017.01
2018-04-21T06:24:51.201Z,1016.95
2018-04-21T06:25:51.183Z,1016.97
2018-04-21T06:26:51.173Z,1017.01
2018-04-21T06:27:51.165Z,1016.99
2018-04-21T06:28:51.159Z,1016.99
2018-04-21T06:29:51.154Z,1016.93
2018-04-21T06:30:51.136Z,1016.98
2018-04-21T06:31:51.128Z,1017.01
2018-04-21T06:32:51.127Z,1016.94
2018-04-21T06:33:51.106Z,1017.00
2018-04-21T06:34:51.111Z,1016.88
2018-04-21T06:35:51.101Z,1016.91
2018-04-21T06:36:51.181Z,1016.86
2018-04-21T06:37:51.089Z,1016.92
2018-04-21T06:38:51.065Z,1016.95
2018-04-21T06:39:51.061Z,1016.99
2018-04-21T06:40:51.048Z,1017.01
2018-04-21T06:41:51.049Z,1017.03
2018-04-21T06:42:51.036Z,1017.04
2018-04-21T06:43:51.024Z,1017.10
2018-04-21T06:44:51.021Z,1017.09
2018-04-21T06:45:51.030Z,1017.04
2018-04-21T06:46:51.002Z,1017.00
2018-04-21T06:47:50.983Z,1016.99
2018-04-21T06:48:50.983Z,1017.01
2018-04-21T06:49:50.966Z,1017.02
2018-04-21T06:50:50.962Z,1017.09
2018-04-21T06:51:50.962Z,1017.02
2018-04-21T06:52:50.942Z,1017.02
2018-04-21T06:53:50.926Z,1017.00
2018-04-21T06:54:50.922Z,1016.98
2018-04-21T06:55:50.910Z,1016.98
2018-04-21T06:56:50.901Z,1016.96
2018-04-21T06:57:50.892Z,1016.98
2018-04-21T06:58:50.881Z,1016.98
2018-04-21T06:59:50.878Z,1016.95
2018-04-21T07:00:50.861Z,1016.99
2018-04-21T07:01:50.849Z,1016.96
2018-04-21T07:02:50.849Z,1016.98
2018-04-21T07:03:50.836Z,1016.97
2018-04-21T07:04:50.830Z,1017.01
2018-04-21T07:05:50.816Z,1016.99
2018-04-21T07:06:50.801Z,1017.03
2018-04-21T07:07:50.799Z,1017.02
2018-04-21T07:08:50.779Z,1017.08
2018-04-21T07:09:50.773Z,1017.07
2018-04-21T07:10:50.757Z,1017.04
2018-04-21T07:11:50.760Z,1017.04
2018-04-21T07:12:50.744Z,1017.04
2018-04-21T07:13:50.833Z,1017.05
2018-04-21T07:14:50.721Z,1017.04
2018-04-21T07:15:50.711Z,1017.04
2018-04-21T07:16:50.698Z,1017.10
2018-04-21T07:17:50.686Z,1017.10
2018-04-21T07:18:50.686Z,1017.04
2018-04-21T07:19:50.667Z,1017.06
2018-04-21T07:20:50.656Z,1017.04
2018-04-21T07:21:50.653Z,1017.09
2018-04-21T07:22:50.639Z,1017.14
2018-04-21T07:23:50.623Z,1017.13
2018-04-21T07:24:50.616Z,1017.14
2018-04-21T07:25:50.601Z,1017.27
2018-04-21T07:26:50.592Z,1017.19
2018-04-21T07:27:50.579Z,1017.18
2018-04-21T07:28:50.575Z,1017.18
2018-04-21T07:29:50.572Z,1017.17
2018-04-21T07:30:50.564Z,1017.14
2018-04-21T07:31:50.546Z,1017.12
2018-04-21T07:32:50.535Z,1017.14
2018-04-21T07:33:50.520Z,1017.11
2018-04-21T07:34:50.509Z,1017.08
2018-04-21T07:35:50.525Z,1017.08
2018-04-21T07:36:50.501Z,1017.11
2018-04-21T07:37:50.490Z,1017.12
2018-04-21T07:38:50.474Z,1017.19
2018-04-21T07:39:50.477Z,1017.17
2018-04-21T07:40:50.453Z,1017.18
2018-04-21T07:41:50.444Z,1017.22
2018-04-21T07:42:50.452Z,1017.31
2018-04-21T07:43:50.426Z,1017.32
2018-04-21T07:44:50.413Z,1017.35
2018-04-21T07:45:50.407Z,1017.29
2018-04-21T07:46:50.413Z,1017.27
2018-04-21T07:47:50.413Z,1017.34
2018-04-21T07:48:50.376Z,1017.26
2018-04-21T07:49:50.366Z,1017.25
2018-04-21T07:50:50.358Z,1017.34
2018-04-21T07:51:50.345Z,1017.36
2018-04-21T07:52:50.342Z,1017.35
2018-04-21T07:53:50.377Z,1017.35
2018-04-21T07:54:50.326Z,1017.34
2018-04-21T07:55:50.312Z,1017.35
2018-04-21T07:56:50.325Z,1017.34
2018-04-21T07:57:50.296Z,1017.36
2018-04-21T07:58:50.292Z,1017.39
2018-04-21T07:59:50.278Z,1017.34
2018-04-21T08:00:50.276Z,1017.43
2018-04-21T08:01:50.280Z,1017.39
2018-04-21T08:02:50.252Z,1017.34
2018-04-21T08:03:50.251Z,1017.37
2018-04-21T08:04:50.240Z,1017.33
2018-04-21T08:05:50.243Z,1017.33
2018-04-21T08:06:50.234Z,1017.38
2018-04-21T08:07:50.213Z,1017.34
2018-04-21T08:08:50.201Z,1017.38
2018-04-21T08:09:50.194Z,1017.37
2018-04-21T08:10:50.181Z,1017.38
2018-04-21T08:11:50.181Z,1017.38
2018-04-21T08:12:50.196Z,1017.43
2018-04-21T08:13:50.156Z,1017.50
2018-04-21T08:14:50.146Z,1017.51
2018-04-21T08:15:50.158Z,1017.51
2018-04-21T08:16:50.140Z,1017.45
2018-04-21T08:17:50.138Z,1017.44
2018-04-21T08:18:50.114Z,1017.43
2018-04-21T08:19:50.105Z,1017.46
2018-04-21T08:20:50.108Z,1017.46
2018-04-21T08:21:50.095Z,1017.45
2018-04-21T08:22:50.081Z,1017.43
2018-04-21T08:23:50.075Z,1017.49
2018-04-21T08:24:50.063Z,1017.47
2018-04-21T08:25:50.152Z,1017.54
2018-04-21T08:26:50.050Z,1017.50
2018-04-21T08:27:50.040Z,1017.49
2018-04-21T08:28:50.084Z,1017.50
2018-04-21T08:29:50.023Z,1017.48
2018-04-21T08:30:50.018Z,1017.46
2018-04-21T08:31:50.015Z,1017.46
2018-04-21T08:32:49.998Z,1017.41
2018-04-21T08:33:50.006Z,1017.42
2018-04-21T08:34:49.979Z,1017.44
2018-04-21T08:35:49.981Z,1017.43
2018-04-21T08:36:49.967Z,1017.48
2018-04-21T08:37:49.984Z,1017.46
2018-04-21T08:38:49.946Z,1017.46
2018-04-21T08:39:49.938Z,1017.47
2018-04-21T08:40:49.934Z,1017.47
2018-04-21T08:41:49.928Z,1017.49
2018-04-21T08:42:49.912Z,1017.54
2018-04-21T08:43:49.901Z,1017.57
2018-04-21T08:44:49.896Z,1017.56
2018-04-21T08:45:49.898Z,1017.62
2018-04-21T08:46:49.986Z,1017.68
2018-04-21T08:47:49.867Z,1017.56
2018-04-21T08:48:49.858Z,1017.60
2018-04-21T08:49:49.845Z,1017.57
2018-04-21T08:50:49.837Z,1017.56
2018-04-21T08:51:49.831Z,1017.59
2018-04-21T08:52:49.828Z,1017.57
2018-04-21T08:53:49.823Z,1017.58
2018-04-21T08:54:49.805Z,1017.57
2018-04-21T08:55:49.891Z,1017.58
2018-04-21T08:56:49.785Z,1017.64
2018-04-21T08:57:49.780Z,1017.62
2018-04-21T08:58:49.832Z,1017.62
2018-04-21T08:59:49.764Z,1017.64
2018-04-21T09:00:49.758Z,1017.61
2018-04-21T09:01:49.746Z,1017.62
2018-04-21T09:02:49.744Z,1017.64
2018-04-21T09:03:49.725Z,1017.62
2018-04-21T09:04:49.717Z,1017.59
2018-04-21T09:05:49.715Z,1017.58
2018-04-21T09:06:49.709Z,1017.69
2018-04-21T09:07:49.690Z,1017.66
2018-04-21T09:08:49.791Z,1017.66
2018-04-21T09:09:49.680Z,1017.65
2018-04-21T09:10:49.663Z,1017.63
2018-04-21T09:11:49.657Z,1017.66
2018-04-21T09:12:49.647Z,1017.62
2018-04-21T09:13:49.639Z,1017.64
2018-04-21T09:14:49.631Z,1017.68
2018-04-21T09:15:49.644Z,1017.62
2018-04-21T09:16:49.614Z,1017.59
2018-04-21T09:17:49.610Z,1017.58
2018-04-21T09:18:49.597Z,1017.62
2018-04-21T09:19:49.596Z,1017.59
2018-04-21T09:20:49.583Z,1017.67
2018-04-21T09:21:49.589Z,1017.66
2018-04-21T09:22:49.567Z,1017.70
2018-04-21T09:23:49.556Z,1017.65
2018-04-21T09:24:49.552Z,1017.67
2018-04-21T09:25:49.551Z,1017.88
2018-04-21T09:26:49.532Z,1017.77
2018-04-21T09:27:49.525Z,1017.89
2018-04-21T09:28:49.516Z,1017.86
2018-04-21T09:29:49.517Z,1017.91
2018-04-21T09:30:49.502Z,1017.88
2018-04-21T09:31:49.495Z,1017.75
2018-04-21T09:32:49.495Z,1017.79
2018-04-21T09:33:49.494Z,1017.81
2018-04-21T09:34:49.469Z,1017.85
2018-04-21T09:35:49.465Z,1017.84
2018-04-21T09:36:49.459Z,1017.91
2018-04-21T09:37:49.454Z,1017.94
2018-04-21T09:38:49.456Z,1017.90
2018-04-21T09:39:49.441Z,1017.89
2018-04-21T09:40:49.445Z,1017.88
2018-04-21T09:41:49.453Z,1017.86
2018-04-21T09:42:49.428Z,1017.86
2018-04-21T09:43:49.428Z,1017.91
2018-04-21T09:44:49.430Z,1017.88
2018-04-21T09:45:49.427Z,1017.86
2018-04-21T09:46:49.419Z,1017.84
2018-04-21T09:47:49.426Z,1017.84
2018-04-21T09:48:49.423Z,1017.83
2018-04-21T09:49:49.420Z,1017.81
2018-04-21T09:50:49.410Z,1017.83
2018-04-21T09:51:49.411Z,1017.83
2018-04-21T09:52:49.408Z,1017.79
2018-04-21T09:53:49.415Z,1017.79
2018-04-21T09:54:49.416Z,1017.75
2018-04-21T09:55:49.411Z,1017.83
2018-04-21T09:56:49.411Z,1017.74
2018-04-21T09:57:49.405Z,1017.74
2018-04-21T09:58:49.410Z,1017.72
2018-04-21T09:59:49.512Z,1017.69
2018-04-21T10:00:49.416Z,1017.71
2018-04-21T10:01:49.409Z,1017.67
2018-04-21T10:02:49.417Z,1017.66
2018-04-21T10:03:49.421Z,1017.65
2018-04-21T10:04:49.422Z,1017.58
2018-04-21T10:05:49.418Z,1017.60
2018-04-21T10:06:49.421Z,1017.60
2018-04-21T10:07:49.427Z,1017.61
2018-04-21T10:08:49.421Z,1017.56
2018-04-21T10:09:49.428Z,1017.60
2018-04-21T10:10:49.427Z,1017.54
2018-04-21T10:11:49.436Z,1017.51
2018-04-21T10:12:49.439Z,1017.56
2018-04-21T10:13:49.436Z,1017.57
2018-04-21T10:14:49.472Z,1017.55
2018-04-21T10:15:49.446Z,1017.51
2018-04-21T10:16:49.441Z,1017.53
2018-04-21T10:17:49.445Z,1017.48
2018-04-21T10:18:49.445Z,1017.49
2018-04-21T10:19:49.450Z,1017.44
2018-04-21T10:20:49.457Z,1017.42
2018-04-21T10:21:49.465Z,1017.48
2018-04-21T10:22:49.473Z,1017.44
2018-04-21T10:23:49.465Z,1017.46
2018-04-21T10:24:49.506Z,1017.43
2018-04-21T10:25:49.467Z,1017.43
2018-04-21T10:26:49.476Z,1017.44
2018-04-21T10:27:49.482Z,1017.37
2018-04-21T10:28:49.480Z,1017.32
2018-04-21T10:29:49.486Z,1017.31
2018-04-21T10:30:49.496Z,1017.31
2018-04-21T10:31:49.495Z,1017.29
2018-04-21T10:32:49.498Z,1017.29
2018-04-21T10:33:49.495Z,1017.24
2018-04-21T10:34:49.506Z,1017.23
2018-04-21T10:35:49.508Z,1017.27
2018-04-21T10:36:49.512Z,1017.27
2018-04-21T10:37:49.514Z,1017.21
2018-04-21T10:38:49.585Z,1017.25
2018-04-21T10:39:49.523Z,1017.29
2018-04-21T10:40:49.531Z,1017.31
2018-04-21T10:41:49.531Z,1017.29
2018-04-21T10:42:49.532Z,1017.28
2018-04-21T10:43:49.536Z,1017.28
2018-04-21T10:44:49.543Z,1017.31
2018-04-21T10:45:49.598Z,1017.23
2018-04-21T10:46:49.548Z,1017.31
2018-04-21T10:47:49.554Z,1017.33
2018-04-21T10:48:49.556Z,1017.27
2018-04-21T10:49:49.570Z,1017.33
2018-04-21T10:50:49.717Z,1017.33
2018-04-21T10:51:49.577Z,1017.40
2018-04-21T10:52:49.581Z,1017.36
2018-04-21T10:53:49.585Z,1017.43
2018-04-21T10:54:49.585Z,1017.49
2018-04-21T10:55:49.588Z,1017.48
2018-04-21T10:56:49.590Z,1017.53
2018-04-21T10:57:49.609Z,1017.57
2018-04-21T10:58:49.609Z,1017.62
2018-04-21T10:59:49.616Z,1017.59
2018-04-21T11:00:49.615Z,1017.61
2018-04-21T11:01:49.620Z,1017.58
2018-04-21T11:02:49.637Z,1017.68
2018-04-21T11:03:49.662Z,1017.75
2018-04-21T11:04:49.626Z,1017.74
2018-04-21T11:05:49.625Z,1017.84
2018-04-21T11:06:49.635Z,1017.78
2018-04-21T11:07:49.664Z,1017.87
2018-04-21T11:08:49.654Z,1017.87
2018-04-21T11:09:49.716Z,1017.92
2018-04-21T11:10:49.651Z,1017.91
2018-04-21T11:11:49.651Z,1017.94
2018-04-21T11:12:49.654Z,1017.93
2018-04-21T11:13:49.678Z,1017.91
2018-04-21T11:14:49.679Z,1017.86
2018-04-21T11:15:49.669Z,1017.81
2018-04-21T11:16:49.681Z,1017.90
2018-04-21T11:17:49.687Z,1017.91
2018-04-21T11:18:49.689Z,1017.85
2018-04-21T11:19:49.698Z,1017.87
2018-04-21T11:20:49.691Z,1017.89
2018-04-21T11:21:49.706Z,1017.93
2018-04-21T11:22:49.759Z,1017.92
2018-04-21T11:23:49.707Z,1017.87
2018-04-21T11:24:49.772Z,1017.91
2018-04-21T11:25:49.711Z,1018.00
2018-04-21T11:26:49.724Z,1018.02
2018-04-21T11:27:49.721Z,1018.00
2018-04-21T11:28:49.728Z,1018.11
2018-04-21T11:29:49.732Z,1018.28
2018-04-21T11:30:49.755Z,1018.27
2018-04-21T11:31:49.751Z,1018.46
2018-04-21T11:32:49.749Z,1018.46
2018-04-21T11:33:49.752Z,1018.28
2018-04-21T11:34:49.769Z,1018.23
2018-04-21T11:35:49.758Z,1018.13
2018-04-21T11:36:49.770Z,1017.93
2018-04-21T11:37:49.771Z,1018.15
2018-04-21T11:38:49.776Z,1018.11
2018-04-21T11:39:49.772Z,1018.02
2018-04-21T11:40:49.777Z,1017.90
2018-04-21T11:41:49.777Z,1017.76
2018-04-21T11:42:49.786Z,1017.67
2018-04-21T11:43:49.786Z,1017.65
2018-04-21T11:44:49.791Z,1017.61
2018-04-21T11:45:49.790Z,1017.57
2018-04-21T11:46:49.795Z,1017.36
2018-04-21T11:47:49.805Z,1017.04
2018-04-21T11:48:49.813Z,1016.90
2018-04-21T11:49:49.816Z,1016.85
2018-04-21T11:50:49.805Z,1016.86
2018-04-21T11:51:49.816Z,1016.85
2018-04-21T11:52:49.832Z,1016.84
2018-04-21T11:53:49.807Z,1016.84
2018-04-21T11:54:49.808Z,1016.82
2018-04-21T11:55:49.816Z,1016.81
2018-04-21T11:56:49.810Z,1016.75
2018-04-21T11:57:49.808Z,1016.75
2018-04-21T11:58:49.808Z,1016.69
2018-04-21T11:59:49.815Z,1016.71
2018-04-21T12:00:49.821Z,1016.64
2018-04-21T12:01:49.932Z,1016.65
2018-04-21T12:02:49.821Z,1016.57
2018-04-21T12:03:49.816Z,1016.59
2018-04-21T12:04:49.813Z,1016.58
2018-04-21T12:05:49.805Z,1016.62